createdAt,value
2023-05-14T00:03:41.409Z,13.40
2023-05-14T00:07:44.724Z,13.40
2023-05-14T00:11:48.169Z,13.41
2023-05-14T00:15:53.430Z,13.41
2023-05-14T00:19:56.552Z,13.41
2023-05-14T00:24:00.296Z,13.40
2023-05-14T00:28:03.448Z,13.36
2023-05-14T00:32:09.667Z,13.41
2023-05-14T00:36:13.034Z,13.41
2023-05-14T00:40:16.379Z,13.44
2023-05-14T00:44:19.741Z,13.48
2023-05-14T00:48:25.175Z,13.53
2023-05-14T00:52:28.757Z,13.59
2023-05-14T00:56:32.560Z,13.62
2023-05-14T01:00:36.726Z,13.66
2023-05-14T01:04:41.911Z,13.71
2023-05-14T01:08:55.162Z,13.74
2023-05-14T01:13:06.062Z,13.77
2023-05-14T01:17:12.458Z,13.76
2023-05-14T01:21:38.378Z,13.77
2023-05-14T01:25:41.954Z,13.78
2023-05-14T01:29:51.537Z,13.81
2023-05-14T01:33:56.185Z,13.80
2023-05-14T01:38:02.991Z,13.82
2023-05-14T01:42:08.882Z,13.82
2023-05-14T01:46:12.006Z,13.81
2023-05-14T01:50:15.799Z,13.81
2023-05-14T01:54:20.375Z,13.82
2023-05-14T01:58:23.852Z,13.81
2023-05-14T02:02:27.187Z,13.78
2023-05-14T02:06:32.344Z,13.74
2023-05-14T02:10:36.906Z,13.70
2023-05-14T02:14:40.117Z,13.64
2023-05-14T02:18:43.344Z,13.59
2023-05-14T02:22:46.948Z,13.56
2023-05-14T02:26:51.563Z,13.54
2023-05-14T02:31:00.732Z,13.53
2023-05-14T02:35:04.400Z,13.51
2023-05-14T02:39:07.857Z,13.51
2023-05-14T02:43:12.362Z,13.48
2023-05-14T02:47:15.559Z,13.44
2023-05-14T02:51:19.134Z,13.49
2023-05-14T02:55:23.436Z,13.50
2023-05-14T02:59:29.486Z,13.49
2023-05-14T03:03:33.243Z,13.42
2023-05-14T03:07:36.813Z,13.37
2023-05-14T03:11:40.260Z,13.31
2023-05-14T03:15:44.916Z,13.26
2023-05-14T03:19:48.193Z,13.22
2023-05-14T03:23:51.367Z,13.18
2023-05-14T03:27:54.667Z,13.20
2023-05-14T03:31:59.313Z,13.24
2023-05-14T03:36:02.729Z,13.27
2023-05-14T03:40:07.396Z,13.34
2023-05-14T03:44:10.856Z,13.43
2023-05-14T03:48:16.509Z,13.52
2023-05-14T03:52:19.933Z,13.57
2023-05-14T03:56:23.028Z,13.65
2023-05-14T04:00:26.589Z,13.69
2023-05-14T04:04:31.933Z,13.77
2023-05-14T04:08:35.338Z,13.81
2023-05-14T04:12:38.264Z,13.85
2023-05-14T04:16:41.586Z,13.90
2023-05-14T04:20:46.066Z,13.96
2023-05-14T04:24:49.738Z,14.02
2023-05-14T04:28:53.028Z,14.09
2023-05-14T04:32:56.626Z,14.20
2023-05-14T04:37:01.547Z,14.31
2023-05-14T04:41:05.056Z,14.39
2023-05-14T04:45:09.278Z,14.49
2023-05-14T04:49:12.745Z,14.57
2023-05-14T04:53:17.298Z,14.65
2023-05-14T04:57:21.383Z,14.72
2023-05-14T05:01:24.783Z,14.79
2023-05-14T05:05:28.214Z,14.82
2023-05-14T05:09:33.244Z,14.88
2023-05-14T05:13:36.518Z,14.93
2023-05-14T05:17:39.662Z,15.00
2023-05-14T05:21:43.207Z,15.03
2023-05-14T05:25:48.111Z,15.12
2023-05-14T05:29:51.438Z,15.19
2023-05-14T05:33:54.784Z,15.28
2023-05-14T05:38:01.339Z,15.39
2023-05-14T05:42:07.993Z,15.50
2023-05-14T05:46:11.479Z,15.60
2023-05-14T05:50:15.525Z,15.71
2023-05-14T05:54:19.160Z,15.79
2023-05-14T05:58:23.868Z,15.91
2023-05-14T06:02:27.530Z,15.94
2023-05-14T06:06:32.954Z,16.03
2023-05-14T06:10:37.875Z,16.11
2023-05-14T06:14:43.006Z,16.24
2023-05-14T06:18:46.927Z,16.38
2023-05-14T06:22:50.143Z,16.54
2023-05-14T06:26:53.497Z,16.71
2023-05-14T06:30:58.364Z,16.90
2023-05-14T06:35:02.125Z,17.03
2023-05-14T06:39:05.565Z,17.22
2023-05-14T06:43:08.775Z,17.37
2023-05-14T06:47:13.747Z,17.56
2023-05-14T06:51:17.960Z,17.76
2023-05-14T06:55:21.404Z,17.92
2023-05-14T06:59:24.860Z,18.05
2023-05-14T07:03:29.776Z,18.13
2023-05-14T07:07:33.486Z,18.18
2023-05-14T07:11:36.773Z,18.21
2023-05-14T07:15:40.159Z,18.23
2023-05-14T07:19:44.999Z,18.21
2023-05-14T07:23:48.302Z,18.22
2023-05-14T07:27:51.308Z,18.09
2023-05-14T07:31:55.160Z,18.09
2023-05-14T07:36:00.109Z,18.05
2023-05-14T07:40:03.577Z,18.03
2023-05-14T07:44:06.672Z,18.10
2023-05-14T07:48:10.667Z,18.19
2023-05-14T07:52:15.280Z,18.32
2023-05-14T07:56:18.478Z,18.43
2023-05-14T08:00:21.971Z,18.55
2023-05-14T08:04:25.573Z,18.65
2023-05-14T08:08:30.135Z,18.73
2023-05-14T08:12:33.488Z,18.75
2023-05-14T08:16:36.699Z,18.76
2023-05-14T08:20:39.821Z,18.77
2023-05-14T08:24:44.500Z,18.81
2023-05-14T08:28:47.952Z,18.87
2023-05-14T08:32:51.203Z,18.92
2023-05-14T08:36:54.436Z,18.94
2023-05-14T08:40:59.459Z,18.92
2023-05-14T08:45:04.283Z,18.78
2023-05-14T08:49:18.180Z,18.76
2023-05-14T08:53:22.044Z,18.71
2023-05-14T08:57:27.138Z,18.68
2023-05-14T09:01:31.359Z,18.69
2023-05-14T09:05:34.958Z,18.69
2023-05-14T09:09:38.939Z,18.72
2023-05-14T09:13:43.515Z,18.73
2023-05-14T09:17:48.947Z,18.62
2023-05-14T09:21:52.289Z,18.60
2023-05-14T09:25:56.758Z,18.53
2023-05-14T09:30:10.135Z,18.40
2023-05-14T09:34:21.825Z,18.27
2023-05-14T09:38:29.249Z,18.14
2023-05-14T09:42:33.049Z,18.08
2023-05-14T09:46:38.141Z,17.97
2023-05-14T09:50:44.230Z,17.89
2023-05-14T09:54:48.304Z,17.81
2023-05-14T09:58:51.975Z,17.77
2023-05-14T10:02:58.195Z,17.76
2023-05-14T10:07:02.478Z,17.72
2023-05-14T10:11:09.830Z,17.66
2023-05-14T10:15:22.247Z,17.56
2023-05-14T10:19:28.072Z,17.40
2023-05-14T10:23:32.274Z,17.18
2023-05-14T10:27:35.649Z,16.98
2023-05-14T10:31:48.241Z,16.77
2023-05-14T10:36:02.623Z,16.60
2023-05-14T10:40:09.065Z,16.44
2023-05-14T10:44:13.360Z,16.29
2023-05-14T10:48:16.961Z,16.16
2023-05-14T10:52:22.304Z,16.04
2023-05-14T10:56:26.519Z,15.97
2023-05-14T11:00:29.622Z,15.89
2023-05-14T11:04:33.631Z,15.86
2023-05-14T11:08:38.906Z,15.83
2023-05-14T11:12:44.335Z,15.82
2023-05-14T11:16:48.440Z,15.78
2023-05-14T11:20:52.918Z,15.73
2023-05-14T11:24:57.592Z,15.71
2023-05-14T11:29:01.710Z,15.67
2023-05-14T11:33:05.161Z,15.65
2023-05-14T11:37:10.790Z,15.59
2023-05-14T11:41:15.995Z,15.54
2023-05-14T11:45:27.357Z,15.55
2023-05-14T11:49:30.511Z,15.52
2023-05-14T11:53:36.483Z,15.48
2023-05-14T11:57:42.351Z,15.45
2023-05-14T12:01:46.032Z,15.43
2023-05-14T12:05:57.360Z,15.43
2023-05-14T12:10:03.863Z,15.45
2023-05-14T12:14:16.628Z,15.50
2023-05-14T12:18:24.469Z,15.55
2023-05-14T12:22:27.933Z,15.63
2023-05-14T12:26:34.866Z,15.73
2023-05-14T12:30:41.316Z,15.81
2023-05-14T12:34:44.705Z,15.88
2023-05-14T12:38:47.805Z,15.92
2023-05-14T12:42:51.625Z,15.96
2023-05-14T12:46:56.720Z,16.00
2023-05-14T12:55:11.256Z,16.03
2023-05-14T12:59:14.903Z,16.04
2023-05-14T13:03:19.739Z,16.08
2023-05-14T13:07:23.369Z,16.11
2023-05-14T13:11:29.663Z,16.10
2023-05-14T13:15:34.046Z,16.07
2023-05-14T13:19:38.519Z,16.10
2023-05-14T13:23:41.836Z,16.16
2023-05-14T13:27:45.583Z,16.18
2023-05-14T13:31:49.206Z,16.16
2023-05-14T13:35:53.830Z,16.11
2023-05-14T13:39:57.150Z,16.06
2023-05-14T13:44:00.706Z,16.04
2023-05-14T13:48:04.620Z,16.06
2023-05-14T13:52:09.835Z,16.06
2023-05-14T13:56:14.105Z,16.01
2023-05-14T14:00:17.974Z,15.98
2023-05-14T14:04:22.177Z,15.90
2023-05-14T14:08:26.706Z,15.84
2023-05-14T14:12:30.049Z,15.75
2023-05-14T14:16:33.046Z,15.64
2023-05-14T14:20:36.783Z,15.51
2023-05-14T14:24:41.829Z,15.44
2023-05-14T14:28:46.068Z,15.33
2023-05-14T14:32:50.435Z,15.26
2023-05-14T14:36:53.711Z,15.20
2023-05-14T14:40:58.955Z,15.16
2023-05-14T14:45:02.367Z,15.13
2023-05-14T14:49:05.367Z,15.07
2023-05-14T14:53:08.550Z,15.04
2023-05-14T14:57:13.238Z,15.02
2023-05-14T15:01:17.297Z,15.00
2023-05-14T15:05:20.612Z,15.00
2023-05-14T15:09:24.099Z,15.05
2023-05-14T15:13:29.396Z,15.12
2023-05-14T15:17:33.141Z,15.22
2023-05-14T15:21:36.500Z,15.34
2023-05-14T15:25:39.954Z,15.46
2023-05-14T15:29:44.395Z,15.60
2023-05-14T15:33:48.118Z,15.71
2023-05-14T15:37:51.305Z,15.79
2023-05-14T15:41:54.741Z,15.81
2023-05-14T15:45:59.179Z,15.79
2023-05-14T15:50:02.633Z,15.68
2023-05-14T15:54:05.767Z,15.57
2023-05-14T15:58:09.004Z,15.45
2023-05-14T16:02:14.109Z,15.35
2023-05-14T16:06:17.673Z,15.35
2023-05-14T16:10:21.765Z,15.32
2023-05-14T16:14:25.288Z,15.29
2023-05-14T16:18:29.639Z,15.25
2023-05-14T16:22:34.833Z,15.18
2023-05-14T16:26:37.950Z,15.23
2023-05-14T16:30:41.190Z,15.24
2023-05-14T16:34:50.156Z,15.21
2023-05-14T16:39:06.708Z,15.26
2023-05-14T16:43:10.117Z,15.26
2023-05-14T16:47:13.542Z,15.25
2023-05-14T16:51:18.428Z,15.25
2023-05-14T16:55:22.344Z,15.22
2023-05-14T16:59:25.713Z,15.21
2023-05-14T17:03:29.395Z,15.21
2023-05-14T17:07:33.929Z,15.20
2023-05-14T17:11:37.311Z,15.18
2023-05-14T17:15:42.000Z,15.20
2023-05-14T17:19:45.969Z,15.19
2023-05-14T17:23:50.593Z,15.18
2023-05-14T17:27:54.063Z,15.18
2023-05-14T17:31:57.375Z,15.15
2023-05-14T17:36:01.070Z,15.13
2023-05-14T17:40:06.345Z,15.12
2023-05-14T17:44:11.401Z,15.08
2023-05-14T17:48:15.927Z,15.04
2023-05-14T17:52:19.573Z,15.01
2023-05-14T17:56:24.240Z,14.97
2023-05-14T18:00:27.493Z,14.93
2023-05-14T18:04:30.636Z,14.89
2023-05-14T18:08:34.046Z,14.84
2023-05-14T18:12:38.636Z,14.82
2023-05-14T18:16:42.051Z,14.76
2023-05-14T18:20:45.123Z,14.72
2023-05-14T18:24:49.026Z,14.69
2023-05-14T18:28:53.871Z,14.67
2023-05-14T18:32:57.853Z,14.63
2023-05-14T18:37:01.149Z,14.62
2023-05-14T18:41:05.875Z,14.58
2023-05-14T18:45:11.855Z,14.57
2023-05-14T18:49:15.204Z,14.55
2023-05-14T18:53:18.130Z,14.52
2023-05-14T18:57:21.665Z,14.51
2023-05-14T19:01:26.340Z,14.49
2023-05-14T19:05:29.409Z,14.45
2023-05-14T19:09:32.637Z,14.42
2023-05-14T19:13:39.546Z,14.40
2023-05-14T19:17:44.293Z,14.38
2023-05-14T19:21:48.229Z,14.36
2023-05-14T19:25:51.550Z,14.33
2023-05-14T19:29:55.002Z,14.32
2023-05-14T19:34:00.222Z,14.29
2023-05-14T19:38:03.591Z,14.27
2023-05-14T19:42:08.022Z,14.26
2023-05-14T19:46:11.458Z,14.24
2023-05-14T19:50:16.519Z,14.24
2023-05-14T19:54:21.960Z,14.21
2023-05-14T19:58:25.617Z,14.19
2023-05-14T20:02:31.537Z,14.16
2023-05-14T20:06:38.481Z,14.14
2023-05-14T20:10:45.167Z,14.12
2023-05-14T20:14:48.293Z,14.08
2023-05-14T20:18:51.835Z,14.07
2023-05-14T20:22:56.493Z,14.06
2023-05-14T20:26:59.972Z,14.03
2023-05-14T20:31:04.282Z,14.02
2023-05-14T20:35:08.816Z,14.02
2023-05-14T20:39:14.474Z,14.03
2023-05-14T20:43:18.129Z,14.02
2023-05-14T20:47:24.511Z,14.02
2023-05-14T20:51:28.130Z,14.00
2023-05-14T20:55:33.487Z,14.00
2023-05-14T20:59:36.872Z,13.98
2023-05-14T21:03:40.336Z,13.96
2023-05-14T21:07:43.970Z,13.95
2023-05-14T21:11:48.599Z,13.94
2023-05-14T21:15:52.028Z,13.92
2023-05-14T21:19:55.015Z,13.91
2023-05-14T21:23:58.814Z,13.92
2023-05-14T21:28:03.300Z,13.91
2023-05-14T21:32:07.883Z,13.90
2023-05-14T21:36:11.407Z,13.90
2023-05-14T21:40:14.763Z,13.89
2023-05-14T21:44:19.267Z,13.88
2023-05-14T21:48:23.497Z,13.88
2023-05-14T21:52:26.962Z,13.86
2023-05-14T21:56:30.691Z,13.86
2023-05-14T22:00:35.638Z,13.86
2023-05-14T22:04:39.060Z,13.84
2023-05-14T22:08:42.410Z,13.84
2023-05-14T22:12:46.911Z,13.80
2023-05-14T22:16:52.638Z,13.84
2023-05-14T22:20:56.454Z,13.84
2023-05-14T22:24:59.508Z,13.82
2023-05-14T22:29:03.036Z,13.83
2023-05-14T22:33:08.079Z,13.82
2023-05-14T22:37:11.913Z,13.80
2023-05-14T22:41:17.499Z,13.79
2023-05-14T22:45:21.362Z,13.78
2023-05-14T22:49:26.121Z,13.78
2023-05-14T22:53:29.817Z,13.75
2023-05-14T22:57:32.926Z,13.75
2023-05-14T23:01:36.644Z,13.68
2023-05-14T23:05:41.287Z,13.74
2023-05-14T23:09:44.506Z,13.73
2023-05-14T23:13:47.810Z,13.72
2023-05-14T23:17:51.330Z,13.72
2023-05-14T23:21:56.306Z,13.70
2023-05-14T23:25:59.553Z,13.67
2023-05-14T23:30:02.485Z,13.67
2023-05-14T23:34:06.507Z,13.63
2023-05-14T23:38:11.005Z,13.61
2023-05-14T23:42:14.843Z,13.63
2023-05-14T23:46:17.954Z,13.61
2023-05-14T23:50:21.423Z,13.58
2023-05-14T23:54:26.109Z,13.57
2023-05-14T23:58:30.574Z,13.52
